createdAt,value
2018-03-21T00:00:37.111Z,0
2018-03-21T00:01:17.656Z,0
2018-03-21T00:01:58.254Z,0
2018-03-21T00:02:38.835Z,0
2018-03-21T00:03:19.415Z,0
2018-03-21T00:04:00.089Z,0
2018-03-21T00:04:40.665Z,0
2018-03-21T00:05:21.197Z,0
2018-03-21T00:06:01.779Z,0
2018-03-21T00:06:42.336Z,0
2018-03-21T00:07:23.078Z,0
2018-03-21T00:08:03.655Z,0
2018-03-21T00:08:44.179Z,0
2018-03-21T00:09:24.746Z,0
2018-03-21T00:10:05.286Z,0
2018-03-21T00:10:45.823Z,0
2018-03-21T00:11:26.368Z,0
2018-03-21T00:12:06.908Z,0
2018-03-21T00:12:47.455Z,0
2018-03-21T00:13:28.315Z,0
2018-03-21T00:14:08.866Z,0
2018-03-21T00:14:49.404Z,0
2018-03-21T00:15:29.959Z,0
2018-03-21T00:16:10.545Z,0
2018-03-21T00:16:51.126Z,0
2018-03-21T00:17:31.964Z,0
2018-03-21T00:18:12.507Z,0
2018-03-21T00:18:53.109Z,0
2018-03-21T00:19:33.744Z,0
2018-03-21T00:20:14.405Z,0
2018-03-21T00:20:54.944Z,0
2018-03-21T00:21:35.552Z,0
2018-03-21T00:22:16.151Z,0
2018-03-21T00:22:56.673Z,0
2018-03-21T00:23:37.213Z,0
2018-03-21T00:24:17.759Z,0
2018-03-21T00:24:58.340Z,0
2018-03-21T00:25:38.909Z,0
2018-03-21T00:26:19.452Z,0
2018-03-21T00:27:00.009Z,0
2018-03-21T00:27:40.615Z,0
2018-03-21T00:28:21.197Z,0
2018-03-21T00:29:01.773Z,0
2018-03-21T00:29:42.327Z,0
2018-03-21T00:30:22.982Z,0
2018-03-21T00:31:03.665Z,0
2018-03-21T00:31:44.312Z,0
2018-03-21T00:32:24.851Z,0
2018-03-21T00:33:05.404Z,0
2018-03-21T00:33:45.935Z,0
2018-03-21T00:34:26.479Z,0
2018-03-21T00:35:07.030Z,0
2018-03-21T00:35:47.613Z,0
2018-03-21T00:36:28.135Z,0
2018-03-21T00:37:08.683Z,0
2018-03-21T00:37:49.230Z,0
2018-03-21T00:38:29.793Z,0
2018-03-21T00:39:10.343Z,0
2018-03-21T00:39:51.195Z,0
2018-03-21T00:40:31.744Z,0
2018-03-21T00:41:12.322Z,0
2018-03-21T00:41:52.884Z,0
2018-03-21T00:42:33.452Z,0
2018-03-21T00:43:14.035Z,0
2018-03-21T00:43:54.598Z,0
2018-03-21T00:44:35.160Z,0
2018-03-21T00:45:15.718Z,0
2018-03-21T00:45:56.302Z,0
2018-03-21T00:46:36.862Z,0
2018-03-21T00:47:17.417Z,0
2018-03-21T00:47:57.986Z,0
2018-03-21T00:48:38.523Z,0
2018-03-21T00:49:19.074Z,0
2018-03-21T00:49:59.643Z,0
2018-03-21T00:50:40.202Z,0
2018-03-21T00:51:20.760Z,0
2018-03-21T00:52:01.309Z,0
2018-03-21T00:52:41.871Z,0
2018-03-21T00:53:22.440Z,0
2018-03-21T00:54:03.006Z,0
2018-03-21T00:54:43.597Z,0
2018-03-21T00:55:24.121Z,0
2018-03-21T00:56:04.682Z,0
2018-03-21T00:56:45.242Z,0
2018-03-21T00:57:25.800Z,0
2018-03-21T00:58:06.355Z,0
2018-03-21T00:58:46.905Z,0
2018-03-21T00:59:27.475Z,0
2018-03-21T01:00:08.042Z,0
2018-03-21T01:00:48.599Z,0
2018-03-21T01:01:29.155Z,0
2018-03-21T01:02:09.711Z,0
2018-03-21T01:02:50.371Z,0
2018-03-21T01:03:30.931Z,0
2018-03-21T01:04:11.489Z,0
2018-03-21T01:04:52.070Z,0
2018-03-21T01:05:32.633Z,0
2018-03-21T01:06:13.197Z,0
2018-03-21T01:06:53.748Z,0
2018-03-21T01:07:34.309Z,0
2018-03-21T01:08:14.857Z,0
2018-03-21T01:08:55.438Z,0
2018-03-21T01:09:35.992Z,0
2018-03-21T01:10:16.550Z,0
2018-03-21T01:10:57.094Z,0
2018-03-21T01:11:37.676Z,0
2018-03-21T01:12:18.229Z,0
2018-03-21T01:12:58.785Z,0
2018-03-21T01:13:39.345Z,0
2018-03-21T01:14:19.921Z,0
2018-03-21T01:15:00.485Z,0
2018-03-21T01:15:41.034Z,0
2018-03-21T01:16:21.599Z,0
2018-03-21T01:17:02.190Z,0
2018-03-21T01:17:42.745Z,0
2018-03-21T01:18:23.308Z,0
2018-03-21T01:19:03.870Z,0
2018-03-21T01:19:44.463Z,0
2018-03-21T01:20:25.008Z,0
2018-03-21T01:21:05.588Z,0
2018-03-21T01:21:46.150Z,0
2018-03-21T01:22:26.709Z,0
2018-03-21T01:23:07.269Z,0
2018-03-21T01:23:47.846Z,0
2018-03-21T01:24:28.430Z,0
2018-03-21T01:25:08.982Z,0
2018-03-21T01:25:49.557Z,0
2018-03-21T01:26:30.133Z,0
2018-03-21T01:27:10.687Z,0
2018-03-21T01:27:51.250Z,0
2018-03-21T01:28:31.792Z,0
2018-03-21T01:29:12.357Z,0
2018-03-21T01:29:52.928Z,0
2018-03-21T01:30:33.490Z,0
2018-03-21T01:31:14.043Z,0
2018-03-21T01:31:54.608Z,0
2018-03-21T01:32:35.176Z,0
2018-03-21T01:33:15.742Z,0
2018-03-21T01:33:56.297Z,0
2018-03-21T01:34:36.847Z,0
2018-03-21T01:35:17.392Z,0
2018-03-21T01:35:57.957Z,0
2018-03-21T01:36:38.527Z,0
2018-03-21T01:37:19.076Z,0
2018-03-21T01:37:59.626Z,0
2018-03-21T01:38:40.191Z,0
2018-03-21T01:39:20.740Z,0
2018-03-21T01:40:01.293Z,0
2018-03-21T01:40:41.854Z,0
2018-03-21T01:41:22.452Z,0
2018-03-21T01:42:03.008Z,0
2018-03-21T01:42:43.568Z,0
2018-03-21T01:43:24.132Z,0
2018-03-21T01:44:04.696Z,0
2018-03-21T01:44:45.269Z,0
2018-03-21T01:45:25.823Z,0
2018-03-21T01:46:06.372Z,0
2018-03-21T01:46:46.929Z,0
2018-03-21T01:47:27.478Z,0
2018-03-21T01:48:08.039Z,0
2018-03-21T01:48:48.597Z,0
2018-03-21T01:49:29.161Z,0
2018-03-21T01:50:09.728Z,0
2018-03-21T01:50:50.306Z,0
2018-03-21T01:51:30.856Z,0
2018-03-21T01:52:11.408Z,0
2018-03-21T01:52:51.952Z,0
2018-03-21T01:53:32.536Z,0
2018-03-21T01:54:13.090Z,0
2018-03-21T01:54:53.637Z,0
2018-03-21T01:55:34.200Z,0
2018-03-21T01:56:14.750Z,0
2018-03-21T01:56:55.319Z,0
2018-03-21T01:57:35.873Z,0
2018-03-21T01:58:16.749Z,0
2018-03-21T01:58:57.342Z,0
2018-03-21T01:59:37.914Z,0
2018-03-21T02:00:18.462Z,0
2018-03-21T02:00:59.155Z,0
2018-03-21T02:01:39.720Z,0
2018-03-21T02:02:20.272Z,0
2018-03-21T02:03:00.828Z,0
2018-03-21T02:03:41.373Z,0
2018-03-21T02:04:21.947Z,0
2018-03-21T02:05:02.511Z,0
2018-03-21T02:05:43.083Z,0
2018-03-21T02:06:23.659Z,0
2018-03-21T02:07:04.226Z,0
2018-03-21T02:07:44.793Z,0
2018-03-21T02:08:25.369Z,0
2018-03-21T02:09:05.924Z,0
2018-03-21T02:09:46.485Z,0
2018-03-21T02:10:27.050Z,0
2018-03-21T02:11:07.612Z,0
2018-03-21T02:11:48.186Z,0
2018-03-21T02:12:28.740Z,0
2018-03-21T02:13:09.299Z,0
2018-03-21T02:13:49.903Z,0
2018-03-21T02:14:30.475Z,0
2018-03-21T02:15:11.033Z,0
2018-03-21T02:15:51.567Z,0
2018-03-21T02:16:32.117Z,0
2018-03-21T02:17:12.740Z,0
2018-03-21T02:17:53.297Z,0
2018-03-21T02:18:33.849Z,0
2018-03-21T02:19:14.404Z,0
2018-03-21T02:19:55.004Z,0
2018-03-21T02:20:35.601Z,0
2018-03-21T02:21:16.205Z,0
2018-03-21T02:21:56.787Z,0
2018-03-21T02:22:37.342Z,0
2018-03-21T02:23:17.892Z,0
2018-03-21T02:23:58.454Z,0
2018-03-21T02:24:39.010Z,0
2018-03-21T02:25:19.565Z,0
2018-03-21T02:26:00.118Z,0
2018-03-21T02:26:40.666Z,0
2018-03-21T02:27:21.230Z,0
2018-03-21T02:28:01.820Z,0
2018-03-21T02:28:42.363Z,0
2018-03-21T02:29:22.925Z,0
2018-03-21T02:30:03.483Z,0
2018-03-21T02:30:44.057Z,0
2018-03-21T02:31:24.604Z,0
2018-03-21T02:32:05.159Z,0
2018-03-21T02:32:45.729Z,0
2018-03-21T02:33:26.269Z,0
2018-03-21T02:34:06.829Z,0
2018-03-21T02:34:47.404Z,0
2018-03-21T02:35:27.966Z,0
2018-03-21T02:36:08.527Z,0
2018-03-21T02:36:49.078Z,0
2018-03-21T02:37:29.646Z,0
2018-03-21T02:38:10.207Z,0
2018-03-21T02:38:50.850Z,0
2018-03-21T02:39:31.401Z,0
2018-03-21T02:40:11.980Z,0
2018-03-21T02:40:52.550Z,0
2018-03-21T02:41:33.101Z,0
2018-03-21T02:42:13.676Z,0
2018-03-21T02:42:54.223Z,0
2018-03-21T02:43:34.808Z,0
2018-03-21T02:44:15.356Z,0
2018-03-21T02:44:55.908Z,0
2018-03-21T02:45:36.473Z,0
2018-03-21T02:46:17.049Z,0
2018-03-21T02:46:57.625Z,0
2018-03-21T02:47:38.178Z,0
2018-03-21T02:48:18.806Z,0
2018-03-21T02:48:59.362Z,0
2018-03-21T02:49:39.917Z,0
2018-03-21T02:50:20.501Z,0
2018-03-21T02:51:01.043Z,0
2018-03-21T02:51:41.594Z,0
2018-03-21T02:52:22.155Z,0
2018-03-21T02:53:02.707Z,0
2018-03-21T02:53:43.355Z,0
2018-03-21T02:54:23.906Z,0
2018-03-21T02:55:04.457Z,0
2018-03-21T02:55:45.005Z,0
2018-03-21T02:56:25.577Z,0
2018-03-21T02:57:06.118Z,0
2018-03-21T02:57:46.672Z,0
2018-03-21T02:58:27.225Z,0
2018-03-21T02:59:07.778Z,0
2018-03-21T02:59:48.353Z,0
2018-03-21T03:00:28.880Z,0
2018-03-21T03:01:09.464Z,0
2018-03-21T03:01:50.044Z,0
2018-03-21T03:02:30.595Z,0
2018-03-21T03:03:11.158Z,0
2018-03-21T03:03:51.716Z,0
2018-03-21T03:04:32.284Z,0
2018-03-21T03:05:12.844Z,0
2018-03-21T03:05:53.394Z,0
2018-03-21T03:06:33.949Z,0
2018-03-21T03:07:14.502Z,0
2018-03-21T03:07:55.061Z,0
2018-03-21T03:08:35.646Z,0
2018-03-21T03:09:16.215Z,0
2018-03-21T03:09:56.757Z,0
2018-03-21T03:10:37.309Z,0
2018-03-21T03:11:17.909Z,0
2018-03-21T03:11:58.468Z,0
2018-03-21T03:12:39.022Z,0
2018-03-21T03:13:19.574Z,0
2018-03-21T03:14:00.124Z,0
2018-03-21T03:14:40.673Z,0
2018-03-21T03:15:21.250Z,0
2018-03-21T03:16:01.795Z,0
2018-03-21T03:16:42.352Z,0
2018-03-21T03:17:22.908Z,0
2018-03-21T03:18:03.481Z,0
2018-03-21T03:18:44.739Z,0
2018-03-21T03:19:25.307Z,0
2018-03-21T03:20:05.857Z,0
2018-03-21T03:20:46.436Z,0
2018-03-21T03:21:26.997Z,0
2018-03-21T03:22:07.550Z,0
2018-03-21T03:22:48.132Z,0
2018-03-21T03:23:28.677Z,0
2018-03-21T03:24:09.219Z,0
2018-03-21T03:24:49.796Z,0
2018-03-21T03:25:30.363Z,0
2018-03-21T03:26:10.926Z,0
2018-03-21T03:26:51.492Z,0
2018-03-21T03:27:32.053Z,0
2018-03-21T03:28:12.613Z,0
2018-03-21T03:28:53.156Z,0
2018-03-21T03:29:33.754Z,0
2018-03-21T03:30:14.328Z,0
2018-03-21T03:30:54.895Z,0
2018-03-21T03:31:35.456Z,0
2018-03-21T03:32:16.013Z,0
2018-03-21T03:32:56.565Z,0
2018-03-21T03:33:37.123Z,0
2018-03-21T03:34:17.665Z,0
2018-03-21T03:34:58.212Z,0
2018-03-21T03:35:38.761Z,0
2018-03-21T03:36:19.356Z,0
2018-03-21T03:36:59.938Z,0
2018-03-21T03:37:40.497Z,0
2018-03-21T03:38:21.049Z,0
2018-03-21T03:39:01.595Z,0
2018-03-21T03:39:42.156Z,0
2018-03-21T03:40:22.696Z,0
2018-03-21T03:41:03.261Z,0
2018-03-21T03:41:43.818Z,0
2018-03-21T03:42:24.366Z,0
2018-03-21T03:43:04.933Z,0
2018-03-21T03:43:45.478Z,0
2018-03-21T03:44:26.061Z,0
2018-03-21T03:45:06.610Z,0
2018-03-21T03:45:47.165Z,0
2018-03-21T03:46:27.723Z,0
2018-03-21T03:47:08.272Z,0
2018-03-21T03:47:48.825Z,0
2018-03-21T03:48:29.388Z,0
2018-03-21T03:49:09.943Z,0
2018-03-21T03:49:50.493Z,0
2018-03-21T03:50:31.049Z,0
2018-03-21T03:51:11.611Z,0
2018-03-21T03:51:52.160Z,0
2018-03-21T03:52:32.709Z,0
2018-03-21T03:53:13.267Z,0
2018-03-21T03:53:53.813Z,0
2018-03-21T03:54:34.376Z,0
2018-03-21T03:55:14.943Z,0
2018-03-21T03:55:55.500Z,0
2018-03-21T03:56:36.074Z,0
2018-03-21T03:57:16.618Z,0
2018-03-21T03:57:57.177Z,0
2018-03-21T03:58:37.767Z,0
2018-03-21T03:59:18.320Z,0
2018-03-21T03:59:58.894Z,0
2018-03-21T04:00:39.459Z,0
2018-03-21T04:01:20.090Z,0
2018-03-21T04:02:00.640Z,0
2018-03-21T04:02:41.240Z,0
2018-03-21T04:03:21.784Z,0
2018-03-21T04:04:02.377Z,0
2018-03-21T04:04:42.932Z,0
2018-03-21T04:05:23.498Z,0
2018-03-21T04:06:04.051Z,0
2018-03-21T04:06:44.622Z,0
2018-03-21T04:07:25.164Z,0
2018-03-21T04:08:05.720Z,0
2018-03-21T04:08:46.284Z,0
2018-03-21T04:09:26.847Z,0
2018-03-21T04:10:07.431Z,0
2018-03-21T04:10:47.987Z,0
2018-03-21T04:11:28.542Z,0
2018-03-21T04:12:09.149Z,0
2018-03-21T04:12:49.682Z,0
2018-03-21T04:13:30.237Z,0
2018-03-21T04:14:10.775Z,0
2018-03-21T04:14:51.347Z,0
2018-03-21T04:15:31.901Z,0
2018-03-21T04:16:12.466Z,0
2018-03-21T04:16:53.033Z,0
2018-03-21T04:17:33.581Z,0
2018-03-21T04:18:16.830Z,0
2018-03-21T04:18:57.380Z,0
2018-03-21T04:19:37.935Z,0
2018-03-21T04:20:18.493Z,0
2018-03-21T04:20:59.065Z,0
2018-03-21T04:21:39.635Z,0
2018-03-21T04:22:20.211Z,0
2018-03-21T04:23:00.783Z,0
2018-03-21T04:23:41.331Z,0
2018-03-21T04:24:21.884Z,0
2018-03-21T04:25:02.427Z,0
2018-03-21T04:25:43.002Z,0
2018-03-21T04:26:23.545Z,0
2018-03-21T04:27:04.098Z,0
2018-03-21T04:27:44.660Z,0
2018-03-21T04:28:25.212Z,0
2018-03-21T04:29:05.784Z,0
2018-03-21T04:29:46.357Z,0
2018-03-21T04:30:26.926Z,0
2018-03-21T04:31:07.559Z,0
2018-03-21T04:31:48.123Z,0
2018-03-21T04:32:28.686Z,0
2018-03-21T04:33:09.290Z,0
2018-03-21T04:33:49.893Z,4
2018-03-21T04:34:30.451Z,4
2018-03-21T04:35:11.018Z,0
2018-03-21T04:35:51.581Z,0
2018-03-21T04:36:32.125Z,0
2018-03-21T04:37:12.694Z,4
2018-03-21T04:37:53.264Z,4
2018-03-21T04:38:33.851Z,0
2018-03-21T04:39:14.441Z,4
2018-03-21T04:39:55.012Z,0
2018-03-21T04:40:35.590Z,4
2018-03-21T04:41:16.185Z,4
2018-03-21T04:41:56.735Z,4
2018-03-21T04:42:37.322Z,4
2018-03-21T04:43:17.865Z,8
2018-03-21T04:43:58.439Z,8
2018-03-21T04:44:39.006Z,8
2018-03-21T04:45:19.564Z,8
2018-03-21T04:46:00.116Z,12
2018-03-21T04:46:40.679Z,12
2018-03-21T04:47:21.248Z,12
2018-03-21T04:48:01.805Z,16
2018-03-21T04:48:42.355Z,16
2018-03-21T04:49:22.927Z,20
2018-03-21T04:50:03.498Z,20
2018-03-21T04:50:44.053Z,24
2018-03-21T04:51:24.653Z,24
2018-03-21T04:52:05.219Z,28
2018-03-21T04:52:45.754Z,28
2018-03-21T04:53:26.317Z,32
2018-03-21T04:54:06.885Z,40
2018-03-21T04:54:47.450Z,40
2018-03-21T04:55:28.032Z,44
2018-03-21T04:56:08.581Z,48
2018-03-21T04:56:49.141Z,52
2018-03-21T04:57:29.686Z,60
2018-03-21T04:58:10.260Z,64
2018-03-21T04:58:50.807Z,72
2018-03-21T04:59:31.362Z,76
2018-03-21T05:00:11.916Z,88
2018-03-21T05:00:52.490Z,92
2018-03-21T05:01:33.265Z,100
2018-03-21T05:02:13.989Z,108
2018-03-21T05:02:54.523Z,120
2018-03-21T05:03:35.101Z,124
2018-03-21T05:04:15.686Z,136
2018-03-21T05:04:56.261Z,144
2018-03-21T05:05:36.845Z,156
2018-03-21T05:06:17.422Z,168
2018-03-21T05:06:57.991Z,180
2018-03-21T05:07:38.543Z,188
2018-03-21T05:08:19.115Z,200
2018-03-21T05:09:00.455Z,212
2018-03-21T05:09:41.010Z,224
2018-03-21T05:10:21.623Z,240
2018-03-21T05:11:02.218Z,256
2018-03-21T05:11:42.770Z,268
2018-03-21T05:12:23.378Z,284
2018-03-21T05:13:03.927Z,296
2018-03-21T05:13:44.483Z,316
2018-03-21T05:14:25.047Z,332
2018-03-21T05:15:05.611Z,348
2018-03-21T05:15:46.174Z,364
2018-03-21T05:16:26.725Z,380
2018-03-21T05:17:07.301Z,400
2018-03-21T05:17:47.887Z,416
2018-03-21T05:18:28.466Z,432
2018-03-21T05:19:09.022Z,456
2018-03-21T05:19:49.603Z,468
2018-03-21T05:20:30.183Z,488
2018-03-21T05:21:10.757Z,512
2018-03-21T05:21:51.308Z,528
2018-03-21T05:22:31.894Z,548
2018-03-21T05:23:12.449Z,568
2018-03-21T05:23:52.998Z,588
2018-03-21T05:24:33.545Z,608
2018-03-21T05:25:14.121Z,632
2018-03-21T05:25:54.660Z,648
2018-03-21T05:26:35.209Z,672
2018-03-21T05:27:15.789Z,692
2018-03-21T05:27:56.337Z,716
2018-03-21T05:28:36.934Z,736
2018-03-21T05:29:17.450Z,756
2018-03-21T05:29:58.015Z,780
2018-03-21T05:30:38.575Z,800
2018-03-21T05:31:19.267Z,820
2018-03-21T05:31:59.916Z,840
2018-03-21T05:32:40.867Z,864
2018-03-21T05:33:21.610Z,884
2018-03-21T05:34:02.586Z,912
2018-03-21T05:34:43.571Z,932
2018-03-21T05:35:24.584Z,960
2018-03-21T05:36:05.450Z,980
2018-03-21T05:36:47.273Z,1008
2018-03-21T05:37:28.337Z,1028
2018-03-21T05:38:09.092Z,1052
2018-03-21T05:38:49.687Z,1072
2018-03-21T05:39:30.250Z,1092
2018-03-21T05:40:10.809Z,1112
2018-03-21T05:40:51.418Z,1136
2018-03-21T05:41:31.965Z,1152
2018-03-21T05:42:12.536Z,1176
2018-03-21T05:42:53.137Z,1200
2018-03-21T05:43:33.683Z,1220
2018-03-21T05:44:14.313Z,1244
2018-03-21T05:44:54.889Z,1264
2018-03-21T05:45:35.456Z,1288
2018-03-21T05:46:16.002Z,1308
2018-03-21T05:46:56.560Z,1328
2018-03-21T05:47:37.119Z,1348
2018-03-21T05:48:17.677Z,1372
2018-03-21T05:48:58.249Z,1392
2018-03-21T05:49:38.864Z,1412
2018-03-21T05:50:19.416Z,1436
2018-03-21T05:50:59.978Z,1456
2018-03-21T05:51:40.661Z,1480
2018-03-21T05:52:21.222Z,1500
2018-03-21T05:53:01.789Z,1528
2018-03-21T05:53:42.696Z,1544
2018-03-21T05:54:23.249Z,1568
2018-03-21T05:55:03.869Z,1592
2018-03-21T05:55:44.471Z,1612
2018-03-21T05:56:25.046Z,1632
2018-03-21T05:57:05.618Z,1656
2018-03-21T05:57:46.200Z,1680
2018-03-21T05:58:26.765Z,1700
2018-03-21T05:59:07.318Z,1724
2018-03-21T05:59:47.866Z,1748
2018-03-21T06:00:28.419Z,1768
2018-03-21T06:01:08.980Z,1792
2018-03-21T06:01:49.532Z,1812
2018-03-21T06:02:30.113Z,1832
2018-03-21T06:03:10.663Z,1848
2018-03-21T06:03:51.214Z,1868
2018-03-21T06:04:31.786Z,1884
2018-03-21T06:05:12.376Z,1896
2018-03-21T06:05:52.908Z,1908
2018-03-21T06:06:33.465Z,1924
2018-03-21T06:07:14.046Z,1940
2018-03-21T06:07:54.602Z,1960
2018-03-21T06:08:35.156Z,1980
2018-03-21T06:09:15.705Z,2052
2018-03-21T06:09:56.268Z,2076
2018-03-21T06:10:36.824Z,2100
2018-03-21T06:11:17.374Z,2100
2018-03-21T06:11:57.924Z,2112
2018-03-21T06:12:38.483Z,2144
2018-03-21T06:13:19.063Z,2168
2018-03-21T06:13:59.620Z,2144
2018-03-21T06:14:40.179Z,2160
2018-03-21T06:15:20.724Z,2180
2018-03-21T06:16:01.300Z,2200
2018-03-21T06:16:41.907Z,2220
2018-03-21T06:17:22.460Z,2240
2018-03-21T06:18:03.033Z,2284
2018-03-21T06:18:43.598Z,2312
2018-03-21T06:19:24.181Z,2340
2018-03-21T06:20:04.730Z,2348
2018-03-21T06:20:45.302Z,2396
2018-03-21T06:21:25.848Z,2392
2018-03-21T06:22:06.411Z,2392
2018-03-21T06:22:46.961Z,2412
2018-03-21T06:23:27.514Z,2432
2018-03-21T06:24:08.061Z,2456
2018-03-21T06:24:48.615Z,2476
2018-03-21T06:25:29.163Z,2496
2018-03-21T06:26:09.710Z,2536
2018-03-21T06:26:50.268Z,2572
2018-03-21T06:27:30.828Z,2612
2018-03-21T06:28:11.374Z,2620
2018-03-21T06:28:51.929Z,2628
2018-03-21T06:29:32.480Z,2644
2018-03-21T06:30:13.074Z,2688
2018-03-21T06:30:53.781Z,2728
2018-03-21T06:31:34.328Z,2748
2018-03-21T06:32:14.892Z,2748
2018-03-21T06:32:55.449Z,2752
2018-03-21T06:33:36.007Z,2760
2018-03-21T06:34:16.576Z,2780
2018-03-21T06:34:57.157Z,2808
2018-03-21T06:35:37.730Z,2828
2018-03-21T06:36:18.284Z,2852
2018-03-21T06:36:58.896Z,2872
2018-03-21T06:37:39.480Z,2892
2018-03-21T06:38:20.006Z,2912
2018-03-21T06:39:00.567Z,2956
2018-03-21T06:39:41.124Z,2980
2018-03-21T06:40:21.679Z,3004
2018-03-21T06:41:02.263Z,3020
2018-03-21T06:41:42.822Z,3028
2018-03-21T06:42:23.396Z,3028
2018-03-21T06:43:03.948Z,3036
2018-03-21T06:43:44.515Z,3052
2018-03-21T06:44:25.096Z,3088
2018-03-21T06:45:05.663Z,3112
2018-03-21T06:45:46.213Z,3132
2018-03-21T06:46:26.798Z,3128
2018-03-21T06:47:07.399Z,3136
2018-03-21T06:47:47.953Z,3144
2018-03-21T06:48:28.538Z,3128
2018-03-21T06:49:09.098Z,3148
2018-03-21T06:49:49.642Z,3148
2018-03-21T06:50:30.213Z,3176
2018-03-21T06:51:10.783Z,3192
2018-03-21T06:51:51.342Z,3192
2018-03-21T06:52:31.922Z,3204
2018-03-21T06:53:12.505Z,3296
2018-03-21T06:53:53.089Z,3312
2018-03-21T06:54:33.642Z,3308
2018-03-21T06:55:14.192Z,3320
2018-03-21T06:55:54.748Z,3328
2018-03-21T06:56:35.290Z,3416
2018-03-21T06:57:15.851Z,3356
2018-03-21T06:57:56.408Z,3348
2018-03-21T06:58:36.967Z,3428
2018-03-21T06:59:17.533Z,3492
2018-03-21T06:59:58.091Z,3620
2018-03-21T07:00:38.641Z,7652
2018-03-21T07:01:19.212Z,13064
2018-03-21T07:01:59.760Z,20160
2018-03-21T07:02:40.344Z,23776
2018-03-21T07:03:20.900Z,21216
2018-03-21T07:04:01.556Z,18848
2018-03-21T07:04:42.110Z,30720
2018-03-21T07:05:22.663Z,39936
2018-03-21T07:06:03.221Z,44576
2018-03-21T07:06:43.788Z,48192
2018-03-21T07:07:24.427Z,57568
2018-03-21T07:08:05.121Z,60448
2018-03-21T07:08:45.686Z,65536
2018-03-21T07:09:26.238Z,59168
2018-03-21T07:10:06.818Z,44928
2018-03-21T07:10:47.417Z,31552
2018-03-21T07:11:27.987Z,31808
2018-03-21T07:12:08.549Z,41344
2018-03-21T07:12:49.202Z,55840
2018-03-21T07:13:29.742Z,54560
2018-03-21T07:14:10.302Z,53696
2018-03-21T07:14:50.865Z,48832
2018-03-21T07:15:31.435Z,52000
2018-03-21T07:16:12.035Z,48928
2018-03-21T07:16:52.667Z,42624
2018-03-21T07:17:33.464Z,34880
2018-03-21T07:18:14.082Z,32352
2018-03-21T07:18:54.675Z,29792
2018-03-21T07:19:35.267Z,29664
2018-03-21T07:20:15.887Z,33408
2018-03-21T07:20:56.476Z,42912
2018-03-21T07:21:37.040Z,49504
2018-03-21T07:22:17.626Z,54016
2018-03-21T07:22:58.209Z,57152
2018-03-21T07:23:38.772Z,55776
2018-03-21T07:24:19.329Z,44736
2018-03-21T07:24:59.889Z,33856
2018-03-21T07:25:40.439Z,33952
2018-03-21T07:26:20.996Z,41184
2018-03-21T07:27:01.558Z,45088
2018-03-21T07:27:42.125Z,48960
2018-03-21T07:28:22.685Z,52288
2018-03-21T07:29:03.262Z,58496
2018-03-21T07:29:43.857Z,68032
2018-03-21T07:30:24.433Z,74048
2018-03-21T07:31:05.014Z,67872
2018-03-21T07:31:45.590Z,81344
2018-03-21T07:32:26.156Z,85088
2018-03-21T07:33:06.719Z,86688
2018-03-21T07:33:47.274Z,88608
2018-03-21T07:34:27.863Z,90912
2018-03-21T07:35:08.462Z,91008
2018-03-21T07:35:49.044Z,89984
2018-03-21T07:36:29.617Z,89952
2018-03-21T07:37:10.176Z,90912
2018-03-21T07:37:50.748Z,91648
2018-03-21T07:38:31.317Z,90432
2018-03-21T07:39:11.886Z,91392
2018-03-21T07:39:52.500Z,90464
2018-03-21T07:40:33.089Z,90368
2018-03-21T07:41:13.701Z,90656
2018-03-21T07:41:54.285Z,89952
2018-03-21T07:42:34.871Z,90368
2018-03-21T07:43:15.453Z,91616
2018-03-21T07:43:56.036Z,90624
2018-03-21T07:44:36.636Z,91104
2018-03-21T07:45:17.188Z,90752
2018-03-21T07:45:57.786Z,88416
2018-03-21T07:46:38.332Z,88800
2018-03-21T07:47:18.916Z,90944
2018-03-21T07:47:59.471Z,91456
2018-03-21T07:48:40.038Z,90528
2018-03-21T07:49:20.617Z,90528
2018-03-21T07:50:01.191Z,91616
2018-03-21T07:50:41.795Z,93600
2018-03-21T07:51:22.340Z,92608
2018-03-21T07:52:02.913Z,91296
2018-03-21T07:52:43.482Z,92640
2018-03-21T07:53:24.146Z,97216
2018-03-21T07:54:04.705Z,98816
2018-03-21T07:54:45.283Z,97600
2018-03-21T07:55:25.860Z,96064
2018-03-21T07:56:06.438Z,94432
2018-03-21T07:56:47.005Z,91008
2018-03-21T07:57:27.582Z,88512
2018-03-21T07:58:08.212Z,87680
2018-03-21T07:58:48.774Z,90112
2018-03-21T07:59:29.332Z,92928
2018-03-21T08:00:09.900Z,93568
2018-03-21T08:00:50.562Z,93184
2018-03-21T08:01:31.218Z,97088
2018-03-21T08:02:11.794Z,100192
2018-03-21T08:02:52.352Z,98592
2018-03-21T08:03:32.938Z,97216
2018-03-21T08:04:13.522Z,98336
2018-03-21T08:04:54.088Z,98176
2018-03-21T08:05:34.701Z,96704
2018-03-21T08:06:15.238Z,98304
2018-03-21T08:06:55.803Z,98848
2018-03-21T08:07:36.426Z,98144
2018-03-21T08:08:17.049Z,95776
2018-03-21T08:08:57.566Z,95808
2018-03-21T08:09:38.149Z,96736
2018-03-21T08:10:18.721Z,95872
2018-03-21T08:10:59.287Z,96864
2018-03-21T08:11:39.867Z,96416
2018-03-21T08:12:20.485Z,95552
2018-03-21T08:13:01.085Z,91712
2018-03-21T08:13:41.674Z,90624
2018-03-21T08:14:22.235Z,91008
2018-03-21T08:15:02.804Z,91872
2018-03-21T08:15:43.381Z,89600
2018-03-21T08:16:24.044Z,88320
2018-03-21T08:17:04.649Z,86496
2018-03-21T08:17:45.206Z,86880
2018-03-21T08:18:25.906Z,88320
2018-03-21T08:19:06.519Z,87328
2018-03-21T08:19:47.081Z,87168
2018-03-21T08:20:27.659Z,84576
2018-03-21T08:21:08.233Z,84576
2018-03-21T08:21:49.038Z,86848
2018-03-21T08:22:29.616Z,88160
2018-03-21T08:23:10.336Z,87840
2018-03-21T08:23:50.934Z,87360
2018-03-21T08:24:31.501Z,86240
2018-03-21T08:25:12.131Z,87488
2018-03-21T08:25:52.696Z,89312
2018-03-21T08:26:33.275Z,87680
2018-03-21T08:27:13.827Z,87008
2018-03-21T08:27:54.409Z,85440
2018-03-21T08:28:34.974Z,80928
2018-03-21T08:29:15.556Z,76736
2018-03-21T08:29:56.153Z,68896
2018-03-21T08:30:36.936Z,58496
2018-03-21T08:31:17.623Z,44448
2018-03-21T08:31:58.256Z,33696
2018-03-21T08:32:38.840Z,25728
2018-03-21T08:33:19.407Z,22784
2018-03-21T08:33:59.975Z,21440
2018-03-21T08:34:40.542Z,20800
2018-03-21T08:35:21.143Z,20096
2018-03-21T08:36:01.715Z,19392
2018-03-21T08:36:42.294Z,18880
2018-03-21T08:37:22.855Z,17920
2018-03-21T08:38:03.463Z,17408
2018-03-21T08:38:44.042Z,16864
2018-03-21T08:39:24.617Z,16256
2018-03-21T08:40:05.187Z,15648
2018-03-21T08:40:45.819Z,14908
2018-03-21T08:41:26.400Z,14328
2018-03-21T08:42:06.994Z,13760
2018-03-21T08:42:47.572Z,13272
2018-03-21T08:43:28.166Z,12844
2018-03-21T08:44:08.777Z,12384
2018-03-21T08:44:49.391Z,11952
2018-03-21T08:45:30.016Z,11624
2018-03-21T08:46:10.562Z,11240
2018-03-21T08:46:51.137Z,10876
2018-03-21T08:47:31.696Z,10528
2018-03-21T08:48:12.318Z,10224
2018-03-21T08:48:52.854Z,9984
2018-03-21T08:49:33.418Z,9756
2018-03-21T08:50:13.996Z,9468
2018-03-21T08:50:54.560Z,9208
2018-03-21T08:51:35.125Z,9012
2018-03-21T08:52:15.694Z,8812
2018-03-21T08:52:56.264Z,8596
2018-03-21T08:53:36.836Z,8456
2018-03-21T08:54:17.402Z,8284
2018-03-21T08:54:57.976Z,8128
2018-03-21T08:55:38.550Z,8004
2018-03-21T08:56:19.176Z,7872
2018-03-21T08:56:59.759Z,7752
2018-03-21T08:57:40.320Z,7604
2018-03-21T08:58:20.893Z,7452
2018-03-21T08:59:01.449Z,7348
2018-03-21T08:59:42.062Z,7264
2018-03-21T09:00:22.605Z,7144
2018-03-21T09:01:03.156Z,7032
2018-03-21T09:01:43.724Z,6916
2018-03-21T09:02:24.290Z,6816
2018-03-21T09:03:04.858Z,6720
2018-03-21T09:03:45.429Z,6652
2018-03-21T09:04:25.997Z,6580
2018-03-21T09:05:06.570Z,6500
2018-03-21T09:05:47.139Z,6432
2018-03-21T09:06:27.710Z,6372
2018-03-21T09:07:08.343Z,6308
2018-03-21T09:07:48.857Z,6216
2018-03-21T09:08:29.428Z,6128
2018-03-21T09:09:09.992Z,6088
2018-03-21T09:09:50.587Z,6032
2018-03-21T09:10:31.155Z,5988
2018-03-21T09:11:11.705Z,5980
2018-03-21T09:11:52.258Z,5896
2018-03-21T09:12:32.835Z,5860
2018-03-21T09:13:13.391Z,5796
2018-03-21T09:13:53.958Z,5740
2018-03-21T09:14:34.518Z,5712
2018-03-21T09:15:15.076Z,5684
2018-03-21T09:15:55.656Z,5632
2018-03-21T09:16:36.218Z,5592
2018-03-21T09:17:16.795Z,5536
2018-03-21T09:17:57.355Z,5428
2018-03-21T09:18:37.910Z,5408
2018-03-21T09:19:18.474Z,5412
2018-03-21T09:19:59.063Z,5332
2018-03-21T09:20:39.626Z,5280
2018-03-21T09:21:20.175Z,5268
2018-03-21T09:22:00.743Z,5260
2018-03-21T09:22:41.308Z,5180
2018-03-21T09:23:21.870Z,5204
2018-03-21T09:24:02.428Z,5220
2018-03-21T09:24:42.985Z,5280
2018-03-21T09:25:23.560Z,5300
2018-03-21T09:26:04.166Z,5308
2018-03-21T09:26:44.693Z,5304
2018-03-21T09:27:25.246Z,5312